createdAt,value
2023-09-13T02:25:33.283Z,98733.13
2023-09-13T02:30:41.548Z,98733.46
2023-09-13T02:35:48.610Z,98734.34
2023-09-13T02:40:52.774Z,98735.23
2023-09-13T02:45:57.077Z,98729.34
2023-09-13T02:51:02.676Z,98728.58
2023-09-13T02:56:08.664Z,98732.27
2023-09-13T03:01:14.211Z,98731.85
2023-09-13T03:06:20.231Z,98728.77
2023-09-13T03:11:27.425Z,98726.70
2023-09-13T03:16:38.351Z,98722.04
2023-09-13T03:21:46.491Z,98723.09
2023-09-13T03:26:51.584Z,98718.77
2023-09-13T03:31:57.516Z,98723.60
2023-09-13T03:37:04.476Z,98719.01
2023-09-13T03:42:09.749Z,98722.30
2023-09-13T03:47:16.172Z,98720.02
2023-09-13T03:52:22.170Z,98715.21
2023-09-13T03:57:26.942Z,98715.15
2023-09-13T04:02:32.611Z,98719.08
2023-09-13T04:07:39.105Z,98720.39
2023-09-13T04:12:43.971Z,98717.95
2023-09-13T04:17:48.389Z,98713.41
2023-09-13T04:22:53.842Z,98721.58
2023-09-13T04:27:57.670Z,98718.29
2023-09-13T04:33:04.064Z,98718.65
2023-09-13T04:38:10.756Z,98719.63
2023-09-13T04:43:14.321Z,98722.49
2023-09-13T04:48:18.526Z,98715.08
2023-09-13T04:53:23.343Z,98715.69
2023-09-13T04:58:28.936Z,98715.69
2023-09-13T05:03:38.079Z,98718.62
2023-09-13T05:08:42.631Z,98720.95
2023-09-13T05:13:51.673Z,98721.48
2023-09-13T05:18:56.448Z,98718.66
2023-09-13T05:24:03.310Z,98721.47
2023-09-13T05:29:06.914Z,98724.59
2023-09-13T05:34:10.823Z,98728.30
2023-09-13T05:39:15.068Z,98723.82
2023-09-13T05:44:31.561Z,98723.02
2023-09-13T05:49:35.917Z,98717.73
2023-09-13T05:54:40.359Z,98711.13
2023-09-13T05:59:44.445Z,98716.82
2023-09-13T06:04:51.415Z,98716.83
2023-09-13T06:09:59.637Z,98713.83
2023-09-13T06:15:04.894Z,98717.15
2023-09-13T06:20:09.607Z,98719.03
2023-09-13T06:25:15.376Z,98722.66
2023-09-13T06:30:20.980Z,98729.02
2023-09-13T06:35:25.651Z,98728.87
2023-09-13T06:40:35.536Z,98725.25
2023-09-13T06:46:01.388Z,98724.89
2023-09-13T06:51:48.781Z,98723.02
2023-09-13T06:56:40.975Z,98728.64
2023-09-13T07:02:07.624Z,98729.02
2023-09-13T07:07:16.002Z,98732.91
2023-09-13T07:12:23.810Z,98732.42
2023-09-13T07:17:33.238Z,98732.28
2023-09-13T07:22:38.178Z,98736.25
2023-09-13T07:27:44.569Z,98741.61
2023-09-13T07:32:52.642Z,98743.18
2023-09-13T07:37:59.367Z,98741.76
2023-09-13T07:43:05.943Z,98740.66
2023-09-13T07:48:09.654Z,98739.98
2023-09-13T07:53:14.519Z,98744.59
2023-09-13T07:58:18.314Z,98743.39
2023-09-13T08:03:22.247Z,98748.92
2023-09-13T08:08:28.182Z,98747.51
2023-09-13T08:13:34.463Z,98738.08
2023-09-13T08:18:40.105Z,98734.07
2023-09-13T08:23:45.774Z,98728.35
2023-09-13T08:28:53.229Z,98729.45
2023-09-13T08:33:59.263Z,98727.61
2023-09-13T08:39:03.417Z,98731.05
2023-09-13T08:44:08.409Z,98730.59
2023-09-13T08:49:11.930Z,98724.86
2023-09-13T08:54:17.193Z,98727.36
2023-09-13T09:18:03.750Z,98715.70
2023-09-13T09:23:08.943Z,98712.42
2023-09-13T09:28:12.295Z,98708.98
2023-09-13T09:33:16.293Z,98707.48
2023-09-13T09:38:26.008Z,98703.92
2023-09-13T09:43:32.460Z,98702.26
2023-09-13T09:48:38.481Z,98701.70
2023-09-13T09:53:44.583Z,98700.85
2023-09-13T09:58:49.207Z,98689.92
2023-09-13T10:03:59.574Z,98692.23
2023-09-13T10:09:06.185Z,98690.09
2023-09-13T10:14:11.244Z,98694.10
2023-09-13T10:19:15.859Z,98687.28
2023-09-13T10:24:23.450Z,98679.70
2023-09-13T10:29:55.226Z,98677.45
2023-09-13T10:35:04.821Z,98670.00
2023-09-13T10:40:30.193Z,98669.42
2023-09-13T10:45:39.059Z,98668.78
2023-09-13T10:50:43.395Z,98672.20
2023-09-13T10:55:50.022Z,98671.67
2023-09-13T11:00:56.961Z,98669.71
2023-09-13T11:06:02.043Z,98670.52
2023-09-13T11:11:20.286Z,98669.98
2023-09-13T11:16:24.925Z,98668.29
2023-09-13T11:22:02.209Z,98661.27
2023-09-13T12:19:27.484Z,98653.76
2023-09-13T12:24:32.762Z,98658.20
2023-09-13T12:29:45.957Z,98657.48
2023-09-13T12:34:50.043Z,98656.77
2023-09-13T12:39:56.917Z,98655.04
2023-09-13T12:45:03.873Z,98650.90
2023-09-13T12:50:28.402Z,98649.04
2023-09-13T12:55:39.569Z,98637.94
2023-09-13T13:01:04.846Z,98633.05
2023-09-13T13:06:09.725Z,98632.29
2023-09-13T13:11:14.000Z,98632.21
2023-09-13T13:16:34.984Z,98633.54
2023-09-13T13:22:10.093Z,98629.64
2023-09-13T13:27:20.475Z,98627.77
2023-09-13T13:32:41.729Z,98629.19
2023-09-13T13:37:49.017Z,98623.02
2023-09-13T13:42:54.488Z,98619.27
2023-09-13T13:48:00.423Z,98619.39
2023-09-13T13:53:06.710Z,98620.50
2023-09-13T13:58:12.856Z,98608.75
2023-09-13T14:03:17.946Z,98605.19
2023-09-13T14:08:25.060Z,98591.61
2023-09-13T14:13:32.370Z,98588.53
2023-09-13T14:18:37.579Z,98580.64
2023-09-13T14:23:57.422Z,98580.13
2023-09-13T14:29:01.948Z,98578.59
2023-09-13T14:34:07.697Z,98582.64
2023-09-13T14:39:14.283Z,98577.65
2023-09-13T14:44:18.655Z,98573.71
2023-09-13T14:49:35.891Z,98568.48
2023-09-13T14:54:39.851Z,98563.73
2023-09-13T14:59:44.417Z,98560.48
2023-09-13T15:04:53.201Z,98562.42
2023-09-13T15:09:57.980Z,98568.48
2023-09-13T15:15:02.645Z,98566.14
2023-09-13T15:20:09.564Z,98566.83
2023-09-13T15:25:14.773Z,98568.89
2023-09-13T15:30:23.073Z,98573.98
2023-09-13T15:35:29.338Z,98574.67
2023-09-13T15:40:33.769Z,98574.37
2023-09-13T15:45:41.999Z,98577.33
2023-09-13T15:50:47.293Z,98578.81
2023-09-13T15:55:55.735Z,98572.83
2023-09-13T16:01:00.500Z,98566.36
2023-09-13T16:06:05.548Z,98562.55
2023-09-13T16:11:10.312Z,98563.73
2023-09-13T16:16:14.859Z,98560.35
2023-09-13T16:21:20.854Z,98564.58
2023-09-13T16:26:26.884Z,98563.72
2023-09-13T16:31:31.106Z,98564.95
2023-09-13T16:36:35.166Z,98566.23
2023-09-13T16:41:44.181Z,98563.43
2023-09-13T16:46:47.480Z,98568.79
2023-09-13T16:51:52.122Z,98575.27
2023-09-13T16:56:56.393Z,98592.80
2023-09-13T17:02:01.820Z,98600.95
2023-09-13T17:07:09.166Z,98606.25
2023-09-13T17:12:13.960Z,98618.88
2023-09-13T17:17:24.681Z,98622.33
2023-09-13T17:22:28.656Z,98622.94
2023-09-13T17:27:34.149Z,98623.68
2023-09-13T17:32:39.759Z,98617.83
2023-09-13T17:37:45.866Z,98625.39
2023-09-13T17:42:50.753Z,98632.29
2023-09-13T17:47:55.922Z,98634.23
2023-09-13T17:53:00.827Z,98636.32
2023-09-13T17:58:05.659Z,98634.40
2023-09-13T18:03:10.127Z,98640.01
2023-09-13T18:08:15.918Z,98639.67
2023-09-13T18:13:21.589Z,98641.34
2023-09-13T18:18:28.422Z,98638.46
2023-09-13T18:23:36.908Z,98631.06
2023-09-13T19:18:36.405Z,98644.52
2023-09-13T19:23:45.756Z,98638.54
2023-09-13T19:28:57.319Z,98642.86
2023-09-13T19:34:03.707Z,98650.29
2023-09-13T19:39:07.683Z,98655.05
2023-09-13T19:44:12.185Z,98665.86
2023-09-13T19:49:17.209Z,98672.34
2023-09-13T19:54:23.136Z,98681.38
2023-09-13T19:59:28.674Z,98685.62
2023-09-13T20:04:34.966Z,98687.09
2023-09-13T20:09:40.719Z,98690.45
2023-09-13T20:14:45.963Z,98708.62
2023-09-13T20:19:51.700Z,98718.52
2023-09-13T20:24:58.047Z,98720.61
2023-09-13T20:30:03.917Z,98729.92
2023-09-13T20:35:08.061Z,98755.26
2023-09-13T20:40:13.231Z,98771.50
2023-09-13T20:45:17.377Z,98771.13
2023-09-13T20:50:21.097Z,98776.77
2023-09-13T20:55:26.120Z,98777.98
2023-09-13T21:00:31.835Z,98781.89
2023-09-13T21:05:36.487Z,98793.02
2023-09-13T21:10:41.038Z,98807.50
2023-09-13T21:15:54.676Z,98813.66
2023-09-13T21:21:00.143Z,98817.45
2023-09-13T21:26:03.773Z,98822.32
2023-09-13T21:31:08.641Z,98839.13
2023-09-13T21:36:14.869Z,98848.02
2023-09-13T21:41:19.486Z,98834.70
2023-09-13T21:46:22.804Z,98827.67
2023-09-13T21:51:42.392Z,98826.27
2023-09-13T21:56:47.053Z,98821.89
2023-09-13T22:01:54.585Z,98819.77
2023-09-13T22:09:21.831Z,98817.05
2023-09-13T22:14:27.284Z,98837.90
2023-09-13T22:19:32.607Z,98848.64
2023-09-13T22:24:38.785Z,98856.50
2023-09-13T22:29:49.249Z,98868.05
2023-09-13T22:34:56.388Z,98878.25
2023-09-13T22:40:03.489Z,98872.16
2023-09-13T22:45:06.893Z,98868.86
2023-09-13T22:50:11.339Z,98869.79
2023-09-13T22:55:15.915Z,98879.19
2023-09-13T23:00:21.490Z,98884.32
2023-09-13T23:05:26.263Z,98895.68
2023-09-13T23:10:30.595Z,98894.69
2023-09-13T23:15:34.891Z,98893.59
2023-09-13T23:20:40.557Z,98887.55
2023-09-13T23:26:11.256Z,98882.22
2023-09-13T23:31:22.758Z,98875.25
2023-09-13T23:36:29.667Z,98877.00
2023-09-13T23:41:33.518Z,98877.86
2023-09-13T23:46:40.824Z,98873.38
2023-09-13T23:51:44.407Z,98880.91
2023-09-13T23:56:50.158Z,98884.72
